N2332E KBHM-
Flight info
| Callsign | N2332E |
|---|---|
| Flight time | N/A |
| Altitude | VFR |
| Route | VFR E |
| Aircraft | C172/L-DOV/C |
Departure
| Time | 2026-04-20 23:31 |
|---|---|
| Airport | Birmingham-Shuttlesworth International Airport (KBHM) |
Arrival
| Time | N/A |
|---|---|
| Airport | - |
| Time | Latitude | Longitude | Altitude | Speed | Heading |
|---|---|---|---|---|---|
| 2026-04-20 23:26 | 33.56639 | -86.74480 | 624 ft | 0 kts | 275° |
| 2026-04-20 23:28 | 33.56641 | -86.74533 | 624 ft | 16 kts | 269° |
| 2026-04-20 23:28 | 33.56703 | -86.74587 | 626 ft | 11 kts | 2° |
| 2026-04-20 23:28 | 33.56796 | -86.74522 | 634 ft | 20 kts | 55° |
| 2026-04-20 23:29 | 33.56886 | -86.74371 | 631 ft | 28 kts | 50° |
| 2026-04-20 23:29 | 33.56994 | -86.74178 | 628 ft | 25 kts | 58° |
| 2026-04-20 23:29 | 33.57087 | -86.74021 | 632 ft | 21 kts | 54° |
| 2026-04-20 23:29 | 33.57156 | -86.73899 | 636 ft | 15 kts | 55° |
| 2026-04-20 23:30 | 33.57223 | -86.73834 | 637 ft | 12 kts | 356° |
| 2026-04-20 23:30 | 33.57259 | -86.73853 | 638 ft | 0 kts | 328° |
| 2026-04-20 23:30 | 33.57278 | -86.73868 | 634 ft | 15 kts | 332° |
| 2026-04-20 23:30 | 33.57264 | -86.74070 | 634 ft | 47 kts | 237° |
| 2026-04-20 23:31 | 33.56993 | -86.74512 | 692 ft | 76 kts | 239° |
| 2026-04-20 23:31 | 33.56700 | -86.75066 | 881 ft | 80 kts | 236° |
| 2026-04-20 23:31 | 33.56367 | -86.75631 | 1081 ft | 84 kts | 237° |
| 2026-04-20 23:31 | 33.56034 | -86.76217 | 1306 ft | 86 kts | 237° |
| 2026-04-20 23:32 | 33.55655 | -86.76833 | 1477 ft | 91 kts | 231° |
| 2026-04-20 23:32 | 33.55265 | -86.77418 | 1701 ft | 92 kts | 236° |
| 2026-04-20 23:32 | 33.54881 | -86.78016 | 1935 ft | 89 kts | 232° |
| 2026-04-20 23:32 | 33.54454 | -86.78562 | 2119 ft | 94 kts | 212° |
| 2026-04-20 23:33 | 33.53796 | -86.78612 | 2306 ft | 96 kts | 168° |
| 2026-04-20 23:33 | 33.53201 | -86.78310 | 2531 ft | 95 kts | 140° |
| 2026-04-20 23:33 | 33.52837 | -86.77643 | 2714 ft | 98 kts | 105° |
| 2026-04-20 23:33 | 33.52575 | -86.76895 | 2896 ft | 99 kts | 136° |
| 2026-04-20 23:34 | 33.52268 | -86.76192 | 3051 ft | 101 kts | 85° |
| 2026-04-20 23:34 | 33.52302 | -86.75364 | 3255 ft | 99 kts | 88° |
| 2026-04-20 23:34 | 33.52416 | -86.74619 | 3454 ft | 75 kts | 75° |
| 2026-04-20 23:34 | 33.52548 | -86.74036 | 3290 ft | 71 kts | 75° |
| 2026-04-20 23:35 | 33.52672 | -86.73572 | 3049 ft | 60 kts | 55° |
| 2026-04-20 23:35 | 33.53206 | -86.72341 | 2975 ft | 95 kts | 62° |
| 2026-04-20 23:35 | 33.53474 | -86.71732 | 3192 ft | 60 kts | 60° |
| 2026-04-20 23:36 | 33.53706 | -86.71313 | 3226 ft | 63 kts | 54° |
| 2026-04-20 23:36 | 33.53983 | -86.70887 | 3276 ft | 64 kts | 51° |
| 2026-04-20 23:36 | 33.54259 | -86.70485 | 3270 ft | 61 kts | 50° |
| 2026-04-20 23:36 | 33.54536 | -86.70101 | 3269 ft | 61 kts | 46° |
| 2026-04-20 23:37 | 33.54866 | -86.69691 | 2309 ft | 129 kts | 45° |
| 2026-04-20 23:37 | 33.55511 | -86.68909 | 2184 ft | 136 kts | 46° |
| 2026-04-20 23:37 | 33.55876 | -86.68138 | 981 ft | 153 kts | 83° |
| 2026-04-20 23:37 | 33.56586 | -86.67735 | 771 ft | 124 kts | 23° |
| 2026-04-20 23:38 | 33.57291 | -86.67265 | 1088 ft | 44 kts | 19° |
| 2026-04-20 23:38 | 33.57821 | -86.67344 | 1574 ft | 117 kts | 345° |
| 2026-04-20 23:38 | 33.58548 | -86.67852 | 978 ft | 140 kts | 289° |
| 2026-04-20 23:38 | 33.58675 | -86.68771 | 784 ft | 82 kts | 280° |
| 2026-04-20 23:39 | 33.58691 | -86.69317 | 789 ft | 63 kts | 268° |
| 2026-04-20 23:39 | 33.58625 | -86.69913 | 846 ft | 82 kts | 276° |
| 2026-04-20 23:39 | 33.59119 | -86.70273 | 808 ft | 103 kts | 305° |
| 2026-04-20 23:39 | 33.59280 | -86.71013 | 1335 ft | 100 kts | 267° |
| 2026-04-20 23:40 | 33.59430 | -86.70866 | 1021 ft | 118 kts | 121° |
| 2026-04-20 23:40 | 33.59517 | -86.70903 | 1482 ft | 124 kts | 194° |
| 2026-04-20 23:40 | 33.58591 | -86.70897 | 777 ft | 151 kts | 173° |
| 2026-04-20 23:40 | 33.57747 | -86.71313 | 744 ft | 133 kts | 239° |
| 2026-04-20 23:41 | 33.57026 | -86.71957 | 691 ft | 128 kts | 221° |
| 2026-04-20 23:41 | 33.56556 | -86.72784 | 697 ft | 121 kts | 238° |
| 2026-04-20 23:41 | 33.56124 | -86.73630 | 747 ft | 117 kts | 237° |
| 2026-04-20 23:41 | 33.55462 | -86.74235 | 638 ft | 125 kts | 210° |
| 2026-04-20 23:42 | 33.54804 | -86.74891 | 662 ft | 121 kts | 223° |
| 2026-04-20 23:42 | 33.54401 | -86.75655 | 1305 ft | 124 kts | 272° |
| 2026-04-20 23:42 | 33.54818 | -86.76602 | 623 ft | 142 kts | 302° |
| 2026-04-20 23:42 | 33.54971 | -86.77645 | 652 ft | 127 kts | 241° |
| 2026-04-20 23:43 | 33.54488 | -86.78503 | 624 ft | 124 kts | 226° |
| 2026-04-20 23:43 | 33.53879 | -86.79227 | 638 ft | 122 kts | 224° |
| 2026-04-20 23:43 | 33.53260 | -86.79903 | 647 ft | 121 kts | 223° |
| 2026-04-20 23:43 | 33.53778 | -86.79340 | 635 ft | 0 kts | 224° |
| 2026-04-20 23:44 | 33.53796 | -86.79350 | 635 ft | 13 kts | 6° |
| 2026-04-20 23:44 | 33.53958 | -86.79178 | 626 ft | 57 kts | 43° |
| 2026-04-20 23:44 | 33.54301 | -86.78799 | 725 ft | 71 kts | 32° |
| 2026-04-20 23:44 | 33.54691 | -86.79054 | 628 ft | 104 kts | 295° |
| 2026-04-20 23:45 | 33.54749 | -86.79936 | 596 ft | 120 kts | 231° |
| 2026-04-20 23:45 | 33.54245 | -86.80203 | 1214 ft | 34 kts | 134° |
| 2026-04-20 23:45 | 33.54236 | -86.80177 | 578 ft | 0 kts | 304° |
| 2026-04-20 23:47 | 33.53638 | -86.79657 | 2128 ft | 123 kts | 359° |
| 2026-04-20 23:47 | 33.54439 | -86.79882 | 2123 ft | 121 kts | 340° |
| 2026-04-20 23:48 | 33.55110 | -86.79440 | 2146 ft | 118 kts | 36° |
| 2026-04-20 23:48 | 33.55773 | -86.78887 | 2231 ft | 113 kts | 28° |
| 2026-04-20 23:48 | 33.56499 | -86.78499 | 2269 ft | 115 kts | 22° |
| 2026-04-20 23:48 | 33.57226 | -86.78118 | 2348 ft | 114 kts | 31° |
| 2026-04-20 23:49 | 33.57863 | -86.77516 | 2339 ft | 119 kts | 45° |
| 2026-04-20 23:49 | 33.58446 | -86.76872 | 2461 ft | 112 kts | 41° |
| 2026-04-20 23:49 | 33.59023 | -86.76214 | 2463 ft | 117 kts | 47° |
| 2026-04-20 23:49 | 33.59589 | -86.75423 | 2197 ft | 123 kts | 51° |
| 2026-04-20 23:50 | 33.60000 | -86.74608 | 1981 ft | 105 kts | 68° |
| 2026-04-20 23:50 | 33.60235 | -86.73836 | 1885 ft | 93 kts | 71° |
| 2026-04-20 23:50 | 33.60422 | -86.73130 | 1793 ft | 86 kts | 74° |
| 2026-04-20 23:50 | 33.60562 | -86.72442 | 1676 ft | 84 kts | 80° |
| 2026-04-20 23:51 | 33.60640 | -86.71770 | 1554 ft | 83 kts | 84° |
| 2026-04-20 23:51 | 33.60683 | -86.71055 | 1544 ft | 88 kts | 85° |
| 2026-04-20 23:51 | 33.60657 | -86.70308 | 1665 ft | 94 kts | 150° |
| 2026-04-20 23:51 | 33.59968 | -86.70275 | 1680 ft | 105 kts | 176° |
| 2026-04-20 23:52 | 33.59415 | -86.70915 | 1231 ft | 117 kts | 221° |
| 2026-04-20 23:52 | 33.58993 | -86.71290 | 1695 ft | 90 kts | 214° |
| 2026-04-20 23:52 | 33.58516 | -86.71808 | 1559 ft | 83 kts | 239° |
| 2026-04-20 23:52 | 33.58249 | -86.72349 | 1300 ft | 71 kts | 240° |
| 2026-04-20 23:53 | 33.57990 | -86.72825 | 1055 ft | 65 kts | 237° |
| 2026-04-20 23:53 | 33.57742 | -86.73248 | 849 ft | 59 kts | 236° |
| 2026-04-20 23:53 | 33.57583 | -86.73520 | 765 ft | 67 kts | 236° |
| 2026-04-20 23:53 | 33.57309 | -86.73993 | 687 ft | 65 kts | 237° |
| 2026-04-20 23:54 | 33.57071 | -86.74384 | 632 ft | 38 kts | 223° |
| 2026-04-20 23:54 | 33.56971 | -86.74398 | 632 ft | 7 kts | 149° |